createdAt,value
2022-10-19T00:01:19.680Z,96951.28
2022-10-19T00:06:27.690Z,96962.16
2022-10-19T00:08:59.804Z,96960.84
2022-10-19T00:11:27.415Z,96953.94
2022-10-19T00:13:55.563Z,96955.66
2022-10-19T00:16:27.992Z,96942.50
2022-10-19T00:18:59.116Z,96957.13
2022-10-19T00:21:25.918Z,96955.00
2022-10-19T00:23:52.734Z,96924.56
2022-10-19T00:26:19.292Z,96969.66
2022-10-19T00:28:46.038Z,96959.28
2022-10-19T00:31:15.765Z,96965.69
2022-10-19T00:33:43.460Z,96959.84
2022-10-19T00:36:26.740Z,96957.06
2022-10-19T00:38:54.711Z,96957.13
2022-10-19T00:41:23.482Z,96960.09
2022-10-19T00:43:58.744Z,96956.56
2022-10-19T00:46:27.124Z,96953.53
2022-10-19T00:48:59.399Z,96939.78
2022-10-19T00:51:29.026Z,96942.75
2022-10-19T00:53:56.990Z,96950.22
2022-10-19T00:56:24.386Z,96937.53
2022-10-19T00:58:50.994Z,96952.22
2022-10-19T01:01:20.589Z,96938.13
2022-10-19T01:03:47.804Z,96965.22
2022-10-19T01:06:16.736Z,96958.13
2022-10-19T01:08:43.520Z,96954.34
2022-10-19T01:11:14.224Z,96949.56
2022-10-19T01:13:53.050Z,96955.75
2022-10-19T01:17:01.135Z,96948.00
2022-10-19T01:19:53.466Z,96934.66
2022-10-19T01:22:28.960Z,96942.25
2022-10-19T01:25:56.688Z,96941.59
2022-10-19T01:28:54.162Z,96933.69
2022-10-19T01:31:58.058Z,96930.16
2022-10-19T01:34:44.423Z,96934.34
2022-10-19T01:37:35.757Z,96928.66
2022-10-19T01:40:15.370Z,96923.34
2022-10-19T01:43:00.621Z,96932.22
2022-10-19T01:45:36.168Z,96929.56
2022-10-19T01:48:13.985Z,96889.75
2022-10-19T01:50:55.845Z,96930.75
2022-10-19T01:53:25.509Z,96930.97
2022-10-19T01:55:55.089Z,96924.47
2022-10-19T01:58:30.404Z,96922.91
2022-10-19T02:01:01.486Z,96921.84
2022-10-19T02:03:28.993Z,96913.88
2022-10-19T02:05:57.426Z,96933.69
2022-10-19T02:08:31.912Z,96912.06
2022-10-19T02:10:59.841Z,96935.03
2022-10-19T02:13:28.015Z,96936.50
2022-10-19T02:15:59.379Z,96921.03
2022-10-19T02:18:32.860Z,96927.84
2022-10-19T02:21:02.281Z,96933.53
2022-10-19T02:23:28.839Z,96935.09
2022-10-19T02:25:56.225Z,96936.56
2022-10-19T02:28:28.322Z,96923.66
2022-10-19T02:30:54.894Z,96920.84
2022-10-19T02:33:21.861Z,96918.69
2022-10-19T02:35:48.581Z,96920.78
2022-10-19T02:38:19.820Z,96908.59
2022-10-19T02:40:58.377Z,96907.78
2022-10-19T02:43:26.899Z,96895.59
2022-10-19T02:46:02.626Z,96909.41
2022-10-19T02:48:31.795Z,96912.28
2022-10-19T02:50:58.315Z,96911.91
2022-10-19T02:53:24.877Z,96905.38
2022-10-19T02:55:51.897Z,96902.66
2022-10-19T02:58:18.448Z,96910.06
2022-10-19T03:00:45.066Z,96917.97
2022-10-19T03:03:11.669Z,96933.63
2022-10-19T03:05:38.175Z,96915.59
2022-10-19T03:08:05.041Z,96912.13
2022-10-19T03:10:31.633Z,96895.59
2022-10-19T03:12:58.747Z,96865.09
2022-10-19T03:15:28.973Z,96893.94
2022-10-19T03:17:56.610Z,96894.53
2022-10-19T03:20:23.605Z,96904.81
2022-10-19T03:22:50.488Z,96904.00
2022-10-19T03:25:17.146Z,96891.81
2022-10-19T03:27:43.674Z,96899.72
2022-10-19T03:30:10.682Z,96898.31
2022-10-19T03:32:37.257Z,96897.50
2022-10-19T03:35:04.015Z,96889.59
2022-10-19T03:37:30.510Z,96887.22
2022-10-19T03:39:57.062Z,96891.66
2022-10-19T03:42:23.643Z,96873.41
2022-10-19T03:44:50.179Z,96882.84
2022-10-19T03:47:16.766Z,96881.78
2022-10-19T03:49:43.631Z,96862.44
2022-10-19T03:52:10.336Z,96864.25
2022-10-19T03:54:37.022Z,96875.78
2022-10-19T03:57:03.609Z,96847.25
2022-10-19T03:59:30.237Z,96867.22
2022-10-19T04:01:56.792Z,96858.16
2022-10-19T04:04:23.313Z,96844.44
2022-10-19T04:06:50.619Z,96871.59
2022-10-19T04:09:19.598Z,96878.97
2022-10-19T04:11:46.470Z,96871.59
2022-10-19T04:14:19.273Z,96874.53
2022-10-19T04:16:53.861Z,96872.31
2022-10-19T04:19:20.392Z,96878.00
2022-10-19T04:21:48.953Z,96856.03
2022-10-19T04:24:17.492Z,96869.34
2022-10-19T04:26:46.755Z,96877.25
2022-10-19T04:29:14.381Z,96874.31
2022-10-19T04:31:41.020Z,96876.34
2022-10-19T04:34:08.350Z,96866.97
2022-10-19T04:36:35.168Z,96870.66
2022-10-19T04:39:01.790Z,96861.13
2022-10-19T04:41:28.366Z,96857.44
2022-10-19T04:43:58.119Z,96859.16
2022-10-19T04:46:25.846Z,96851.34
2022-10-19T04:48:52.689Z,96864.91
2022-10-19T04:51:20.286Z,96868.63
2022-10-19T04:53:47.076Z,96856.84
2022-10-19T04:56:22.380Z,96851.28
2022-10-19T04:58:49.314Z,96846.91
2022-10-19T05:01:18.974Z,96851.84
2022-10-19T05:03:46.478Z,96856.69
2022-10-19T05:06:14.370Z,96849.69
2022-10-19T05:08:41.428Z,96844.75
2022-10-19T05:11:12.111Z,96847.00
2022-10-19T05:13:38.754Z,96832.94
2022-10-19T05:16:07.004Z,96845.59
2022-10-19T05:18:34.876Z,96838.34
2022-10-19T05:21:06.748Z,96836.03
2022-10-19T05:23:34.023Z,96839.06
2022-10-19T05:26:12.553Z,96837.69
2022-10-19T05:28:39.521Z,96830.50
2022-10-19T05:31:15.028Z,96831.13
2022-10-19T05:33:42.458Z,96839.31
2022-10-19T05:36:13.475Z,96839.16
2022-10-19T05:38:40.022Z,96825.44
2022-10-19T05:41:06.825Z,96838.59
2022-10-19T05:43:33.454Z,96834.00
2022-10-19T05:46:07.949Z,96848.53
2022-10-19T05:48:35.649Z,96857.59
2022-10-19T05:51:05.276Z,96827.91
2022-10-19T05:56:06.195Z,96846.81
2022-10-19T05:58:33.275Z,96855.28
2022-10-19T06:01:01.063Z,96866.06
2022-10-19T06:03:28.438Z,96860.72
2022-10-19T06:05:55.782Z,96866.22
2022-10-19T06:08:23.758Z,96860.00
2022-10-19T06:10:51.059Z,96858.50
2022-10-19T06:13:19.415Z,96858.31
2022-10-19T06:15:50.869Z,96843.53
2022-10-19T06:18:17.417Z,96866.22
2022-10-19T06:20:45.125Z,96864.59
2022-10-19T06:23:11.616Z,96863.75
2022-10-19T06:25:38.129Z,96864.50
2022-10-19T06:28:04.829Z,96858.66
2022-10-19T06:30:31.476Z,96878.97
2022-10-19T06:32:59.128Z,96867.53
2022-10-19T06:35:25.758Z,96882.59
2022-10-19T06:37:52.286Z,96872.53
2022-10-19T06:40:18.866Z,96882.59
2022-10-19T06:42:45.618Z,96889.09
2022-10-19T06:45:12.159Z,96880.47
2022-10-19T06:47:38.891Z,96887.47
2022-10-19T06:50:06.937Z,96893.38
2022-10-19T06:52:35.010Z,96890.50
2022-10-19T06:55:02.270Z,96892.53
2022-10-19T06:57:28.891Z,96886.72
2022-10-19T06:59:55.594Z,96897.59
2022-10-19T07:02:22.742Z,96882.19
2022-10-19T07:04:49.257Z,96889.34
2022-10-19T07:07:16.006Z,96887.88
2022-10-19T07:09:42.475Z,96895.19
2022-10-19T07:12:10.777Z,96898.06
2022-10-19T07:14:39.569Z,96904.31
2022-10-19T07:17:07.697Z,96894.34
2022-10-19T07:19:34.979Z,96893.56
2022-10-19T07:22:01.878Z,96899.97
2022-10-19T07:24:28.369Z,96901.19
2022-10-19T07:26:55.287Z,96891.75
2022-10-19T07:29:22.168Z,96890.91
2022-10-19T07:31:48.714Z,96891.06
2022-10-19T07:34:15.370Z,96887.47
2022-10-19T07:36:45.426Z,96892.31
2022-10-19T07:39:12.622Z,96887.97
2022-10-19T07:41:39.719Z,96895.28
2022-10-19T07:44:06.319Z,96889.50
2022-10-19T07:46:33.821Z,96874.72
2022-10-19T07:49:00.845Z,96891.34
2022-10-19T07:53:59.392Z,96887.97
2022-10-19T07:56:27.537Z,96900.38
2022-10-19T07:58:56.534Z,96893.16
2022-10-19T08:01:31.312Z,96892.31
2022-10-19T08:04:55.446Z,96896.44
2022-10-19T08:06:45.746Z,96885.31
2022-10-19T08:09:27.805Z,96900.38
2022-10-19T08:11:58.757Z,96890.84
2022-10-19T08:14:25.945Z,96886.41
2022-10-19T08:16:52.493Z,96895.78
2022-10-19T08:19:19.142Z,96900.06
2022-10-19T08:21:46.757Z,96897.19
2022-10-19T08:24:15.940Z,96900.06
2022-10-19T08:26:42.893Z,96901.47
2022-10-19T08:29:18.080Z,96896.28
2022-10-19T08:31:46.467Z,96906.38
2022-10-19T08:34:13.750Z,96907.13
2022-10-19T08:39:13.077Z,96895.63
2022-10-19T08:42:01.124Z,96901.38
2022-10-19T08:44:51.364Z,96907.88
2022-10-19T08:47:31.155Z,96902.88
2022-10-19T08:49:58.477Z,96901.47
2022-10-19T08:52:34.184Z,96891.91
2022-10-19T08:55:09.107Z,96889.28
2022-10-19T08:57:57.229Z,96889.28
2022-10-19T09:03:37.819Z,96896.59
2022-10-19T09:06:26.190Z,96897.34
2022-10-19T09:08:55.709Z,96899.47
2022-10-19T09:11:30.178Z,96885.59
2022-10-19T09:14:14.895Z,96896.50
2022-10-19T09:16:42.275Z,96891.59
2022-10-19T09:19:30.836Z,96886.47
2022-10-19T09:22:06.397Z,96893.22
2022-10-19T09:24:43.107Z,96899.78
2022-10-19T09:27:34.585Z,96892.63
2022-10-19T09:30:03.933Z,96893.38
2022-10-19T09:32:36.700Z,96896.28
2022-10-19T09:35:50.135Z,96899.31
2022-10-19T09:38:16.816Z,96894.28
2022-10-19T09:40:44.141Z,96892.97
2022-10-19T09:43:21.572Z,96901.41
2022-10-19T09:45:57.331Z,96902.03
2022-10-19T09:48:33.398Z,96903.41
2022-10-19T09:51:02.181Z,96912.13
2022-10-19T09:53:30.048Z,96909.97
2022-10-19T09:56:22.819Z,96900.50
2022-10-19T09:58:51.531Z,96908.16
2022-10-19T10:01:41.478Z,96910.28
2022-10-19T10:04:17.809Z,96901.66
2022-10-19T10:06:48.057Z,96896.72
2022-10-19T10:09:22.189Z,96898.94
2022-10-19T10:11:50.667Z,96899.72
2022-10-19T10:14:25.237Z,96894.53
2022-10-19T10:17:22.038Z,96893.13
2022-10-19T10:19:57.666Z,96898.25
2022-10-19T10:22:27.625Z,96890.94
2022-10-19T10:24:56.020Z,96893.28
2022-10-19T10:27:33.883Z,96889.16
2022-10-19T10:30:07.139Z,96896.47
2022-10-19T10:32:38.385Z,96890.13
2022-10-19T10:35:16.338Z,96881.50
2022-10-19T10:37:45.877Z,96889.63
2022-10-19T10:40:31.484Z,96870.94
2022-10-19T10:43:13.054Z,96877.56
2022-10-19T10:45:49.472Z,96871.16
2022-10-19T10:48:50.345Z,96878.47
2022-10-19T10:51:25.018Z,96866.94
2022-10-19T10:53:51.756Z,96871.41
2022-10-19T10:56:23.207Z,96862.06
2022-10-19T10:58:59.275Z,96854.19
2022-10-19T11:01:35.533Z,96857.28
2022-10-19T11:04:12.292Z,96850.69
2022-10-19T11:06:45.741Z,96848.50
2022-10-19T11:09:25.882Z,96860.22
2022-10-19T11:11:55.988Z,96856.59
2022-10-19T11:14:32.622Z,96850.09
2022-10-19T11:17:06.017Z,96846.56
2022-10-19T11:19:32.542Z,96838.66
2022-10-19T11:22:08.080Z,96840.88
2022-10-19T11:25:16.335Z,96843.00
2022-10-19T11:27:55.106Z,96843.75
2022-10-19T11:30:23.967Z,96844.47
2022-10-19T11:33:23.753Z,96838.06
2022-10-19T11:35:58.555Z,96838.78
2022-10-19T11:38:59.005Z,96829.41
2022-10-19T11:41:47.693Z,96820.75
2022-10-19T11:44:25.155Z,96822.25
2022-10-19T11:47:30.536Z,96812.19
2022-10-19T11:50:25.039Z,96810.09
2022-10-19T11:52:53.552Z,96804.41
2022-10-19T11:55:38.336Z,96803.06
2022-10-19T11:58:20.765Z,96796.63
2022-10-19T12:01:00.989Z,96793.81
2022-10-19T12:03:52.545Z,96796.69
2022-10-19T12:06:31.789Z,96793.81
2022-10-19T12:09:24.598Z,96797.44
2022-10-19T12:12:09.864Z,96783.81
2022-10-19T12:14:40.921Z,96786.03
2022-10-19T12:17:18.529Z,96783.22
2022-10-19T12:19:50.841Z,96782.47
2022-10-19T12:22:22.312Z,96774.63
2022-10-19T12:24:50.832Z,96774.03
2022-10-19T12:27:24.468Z,96771.09
2022-10-19T12:29:52.297Z,96766.91
2022-10-19T12:32:23.702Z,96769.75
2022-10-19T12:34:59.156Z,96762.03
2022-10-19T12:37:40.914Z,96769.34
2022-10-19T12:40:25.616Z,96753.50
2022-10-19T12:43:02.192Z,96749.94
2022-10-19T12:45:32.676Z,96744.78
2022-10-19T12:48:08.129Z,96751.41
2022-10-19T12:50:50.142Z,96739.94
2022-10-19T12:53:24.157Z,96735.56
2022-10-19T12:56:05.009Z,96732.75
2022-10-19T12:58:41.549Z,96726.19
2022-10-19T13:01:19.031Z,96732.88
2022-10-19T13:03:46.992Z,96725.03
2022-10-19T13:06:32.656Z,96721.47
2022-10-19T13:09:05.776Z,96719.16
2022-10-19T13:14:06.352Z,96726.59
2022-10-19T13:16:40.164Z,96715.63
2022-10-19T13:19:12.772Z,96723.69
2022-10-19T13:21:53.190Z,96719.41
2022-10-19T13:24:32.570Z,96715.03
2022-10-19T13:27:04.851Z,96712.28
2022-10-19T13:29:37.516Z,96719.59
2022-10-19T13:32:33.455Z,96707.97
2022-10-19T13:35:31.518Z,96705.78
2022-10-19T13:38:16.145Z,96694.97
2022-10-19T13:40:48.891Z,96697.91
2022-10-19T13:43:21.805Z,96687.00
2022-10-19T13:46:13.474Z,96686.31
2022-10-19T13:49:01.448Z,96697.19
2022-10-19T13:51:36.974Z,96694.97
2022-10-19T13:54:35.662Z,96685.66
2022-10-19T13:57:40.525Z,96684.88
2022-10-19T14:00:25.040Z,96685.66
2022-10-19T14:03:11.755Z,96682.75
2022-10-19T14:05:58.651Z,96681.34
2022-10-19T14:08:31.110Z,96674.81
2022-10-19T14:11:05.329Z,96669.75
2022-10-19T14:13:32.289Z,96666.84
2022-10-19T14:16:02.740Z,96669.81
2022-10-19T14:18:32.208Z,96665.44
2022-10-19T14:21:09.586Z,96650.00
2022-10-19T14:23:41.721Z,96660.38
2022-10-19T14:26:20.249Z,96660.38
2022-10-19T14:28:53.009Z,96658.19
2022-10-19T14:31:23.941Z,96653.84
2022-10-19T14:33:52.605Z,96648.00
2022-10-19T14:36:22.442Z,96644.31
2022-10-19T14:38:53.030Z,96639.94
2022-10-19T14:41:19.719Z,96652.28
2022-10-19T14:43:46.444Z,96647.25
2022-10-19T14:46:15.596Z,96648.72
2022-10-19T14:48:48.294Z,96637.19
2022-10-19T14:51:21.507Z,96634.13
2022-10-19T14:53:57.863Z,96637.66
2022-10-19T14:56:48.046Z,96626.81
2022-10-19T14:59:31.670Z,96632.69
2022-10-19T15:02:01.053Z,96631.22
2022-10-19T15:04:31.885Z,96629.81
2022-10-19T15:07:02.097Z,96623.94
2022-10-19T15:09:47.717Z,96624.66
2022-10-19T15:12:19.411Z,96619.50
2022-10-19T15:14:47.749Z,96616.63
2022-10-19T15:17:33.030Z,96623.06
2022-10-19T15:20:01.235Z,96633.88
2022-10-19T15:22:31.046Z,96626.63
2022-10-19T15:25:07.716Z,96622.34
2022-10-19T15:27:36.519Z,96625.69
2022-10-19T15:30:17.862Z,96623.75
2022-10-19T15:32:46.652Z,96630.94
2022-10-19T15:35:23.333Z,96619.31
2022-10-19T15:37:50.757Z,96625.03
2022-10-19T15:40:38.060Z,96629.38
2022-10-19T15:43:29.468Z,96608.38
2022-10-19T15:46:12.256Z,96613.44
2022-10-19T15:48:41.758Z,96609.06
2022-10-19T15:51:28.994Z,96597.47
2022-10-19T15:53:58.172Z,96593.66
2022-10-19T15:56:28.974Z,96601.72
2022-10-19T15:58:57.422Z,96606.06
2022-10-19T16:01:29.204Z,96603.19
2022-10-19T16:03:56.097Z,96597.34
2022-10-19T16:06:26.174Z,96595.94
2022-10-19T16:08:54.055Z,96608.13
2022-10-19T16:11:23.049Z,96614.66
2022-10-19T16:13:49.938Z,96601.44
2022-10-19T16:16:23.370Z,96600.16
2022-10-19T16:18:50.474Z,96586.94
2022-10-19T16:21:17.855Z,96596.34
2022-10-19T16:23:44.421Z,96592.84
2022-10-19T16:26:13.607Z,96600.09
2022-10-19T16:28:40.326Z,96605.13
2022-10-19T16:31:07.140Z,96597.72
2022-10-19T16:33:33.680Z,96597.75
2022-10-19T16:36:04.742Z,96605.00
2022-10-19T16:38:31.278Z,96596.81
2022-10-19T16:41:05.655Z,96608.50
2022-10-19T16:43:32.772Z,96606.94
2022-10-19T16:45:59.401Z,96609.78
2022-10-19T16:48:25.981Z,96607.50
2022-10-19T16:51:07.375Z,96618.31
2022-10-19T16:53:36.949Z,96620.41
2022-10-19T16:56:10.572Z,96623.94
2022-10-19T16:58:37.589Z,96625.28
2022-10-19T17:01:07.885Z,96621.59
2022-10-19T17:03:34.718Z,96621.47
2022-10-19T17:06:06.185Z,96622.94
2022-10-19T17:08:36.979Z,96622.72
2022-10-19T17:11:22.699Z,96628.50
2022-10-19T17:13:52.447Z,96629.81
2022-10-19T17:16:23.567Z,96620.38
2022-10-19T17:18:52.286Z,96613.00
2022-10-19T17:21:21.912Z,96625.31
2022-10-19T17:23:52.777Z,96606.88
2022-10-19T17:26:24.526Z,96607.13
2022-10-19T17:28:51.176Z,96616.34
2022-10-19T17:31:17.748Z,96614.13
2022-10-19T17:33:44.489Z,96604.50
2022-10-19T17:36:16.616Z,96607.97
2022-10-19T17:38:43.126Z,96618.00
2022-10-19T17:41:12.931Z,96612.13
2022-10-19T17:43:44.105Z,96614.06
2022-10-19T17:46:13.201Z,96608.16
2022-10-19T17:48:41.930Z,96613.03
2022-10-19T17:51:12.529Z,96612.97
2022-10-19T17:53:41.228Z,96615.72
2022-10-19T17:56:08.529Z,96609.13
2022-10-19T17:58:39.048Z,96605.41
2022-10-19T18:01:08.569Z,96598.03
2022-10-19T18:03:37.087Z,96600.84
2022-10-19T18:06:10.788Z,96597.06
2022-10-19T18:08:40.952Z,96604.81
2022-10-19T18:11:11.477Z,96602.53
2022-10-19T18:16:10.239Z,96607.94
2022-10-19T18:18:39.100Z,96602.56
2022-10-19T18:23:35.125Z,96615.47
2022-10-19T18:26:10.362Z,96614.38
2022-10-19T18:28:37.623Z,96611.50
2022-10-19T18:31:08.699Z,96612.78
2022-10-19T18:33:36.162Z,96601.88
2022-10-19T18:36:03.201Z,96612.53
2022-10-19T18:38:29.762Z,96603.75
2022-10-19T18:41:00.522Z,96604.19
2022-10-19T18:43:27.109Z,96603.47
2022-10-19T18:45:58.213Z,96609.78
2022-10-19T18:48:26.573Z,96603.16
2022-10-19T18:50:53.245Z,96608.03
2022-10-19T18:53:19.844Z,96592.63
2022-10-19T18:55:46.359Z,96599.16
2022-10-19T18:58:12.875Z,96610.50
2022-10-19T19:00:45.544Z,96610.28
2022-10-19T19:03:12.421Z,96605.69
2022-10-19T19:05:38.963Z,96602.66
2022-10-19T19:08:05.556Z,96589.63
2022-10-19T19:10:32.093Z,96593.81
2022-10-19T19:12:58.672Z,96599.47
2022-10-19T19:15:25.214Z,96595.06
2022-10-19T19:18:32.324Z,96593.38
2022-10-19T19:21:07.163Z,96593.16
2022-10-19T19:23:57.419Z,96576.91
2022-10-19T19:26:35.064Z,96587.09
2022-10-19T19:29:02.461Z,96571.75
2022-10-19T19:31:29.058Z,96583.97
2022-10-19T19:33:56.246Z,96572.88
2022-10-19T19:36:22.774Z,96578.72
2022-10-19T19:38:51.057Z,96571.31
2022-10-19T19:41:17.901Z,96559.25
2022-10-19T19:43:44.535Z,96573.13
2022-10-19T19:46:13.754Z,96569.34
2022-10-19T19:48:42.263Z,96574.28
2022-10-19T19:51:19.977Z,96578.38
2022-10-19T19:53:48.383Z,96578.94
2022-10-19T19:56:18.749Z,96581.72
2022-10-19T19:58:45.453Z,96573.50
2022-10-19T20:01:15.175Z,96574.19
2022-10-19T20:03:42.686Z,96569.16
2022-10-19T20:06:10.502Z,96566.97
2022-10-19T20:08:37.878Z,96567.44
2022-10-19T20:11:07.481Z,96558.16
2022-10-19T20:13:35.104Z,96567.03
2022-10-19T20:16:09.764Z,96576.78
2022-10-19T20:18:40.789Z,96567.81
2022-10-19T20:21:22.456Z,96550.81
2022-10-19T20:24:01.848Z,96563.94
2022-10-19T20:26:39.049Z,96548.16
2022-10-19T20:29:17.407Z,96564.06
2022-10-19T20:31:46.810Z,96550.69
2022-10-19T20:34:23.170Z,96532.94
2022-10-19T20:36:50.840Z,96565.00
2022-10-19T20:39:17.510Z,96537.75
2022-10-19T20:41:44.235Z,96556.81
2022-10-19T20:44:10.866Z,96539.50
2022-10-19T20:46:37.501Z,96543.69
2022-10-19T20:49:04.690Z,96541.44
2022-10-19T20:51:35.066Z,96562.00
2022-10-19T20:54:03.568Z,96556.84
2022-10-19T20:56:32.828Z,96545.16
2022-10-19T20:59:12.701Z,96542.38
2022-10-19T21:01:40.730Z,96549.25
2022-10-19T21:04:09.762Z,96535.19
2022-10-19T21:06:42.287Z,96545.63
2022-10-19T21:09:10.055Z,96542.66
2022-10-19T21:11:39.117Z,96539.06
2022-10-19T21:14:11.603Z,96526.94
2022-10-19T21:16:38.528Z,96513.47
2022-10-19T21:19:08.436Z,96539.63
2022-10-19T21:21:38.380Z,96545.16
2022-10-19T21:24:08.113Z,96533.34
2022-10-19T21:26:36.414Z,96540.91
2022-10-19T21:29:04.987Z,96516.59
2022-10-19T21:31:31.947Z,96543.41
2022-10-19T21:34:05.020Z,96484.28
2022-10-19T21:36:31.582Z,96508.59
2022-10-19T21:38:58.269Z,96512.44
2022-10-19T21:41:26.415Z,96526.94
2022-10-19T21:43:55.086Z,96516.78
2022-10-19T21:46:23.347Z,96518.38
2022-10-19T21:48:50.902Z,96519.28
2022-10-19T21:51:23.737Z,96510.44
2022-10-19T21:53:50.613Z,96501.38
2022-10-19T21:56:21.058Z,96504.34
2022-10-19T21:58:50.050Z,96514.50
2022-10-19T22:01:18.178Z,96477.56
2022-10-19T22:03:48.100Z,96488.91
2022-10-19T22:06:15.271Z,96513.19
2022-10-19T22:08:46.454Z,96507.91
2022-10-19T22:11:13.831Z,96510.34
2022-10-19T22:13:41.430Z,96504.97
2022-10-19T22:16:16.621Z,96502.84
2022-10-19T22:18:43.784Z,96489.91
2022-10-19T22:21:13.684Z,96484.72
2022-10-19T22:23:42.330Z,96490.38
2022-10-19T22:26:18.866Z,96485.84
2022-10-19T22:28:45.798Z,96483.81
2022-10-19T22:31:12.764Z,96484.63
2022-10-19T22:33:40.045Z,96463.41
2022-10-19T22:36:08.898Z,96473.75
2022-10-19T22:38:36.036Z,96463.94
2022-10-19T22:41:02.562Z,96450.75
2022-10-19T22:43:29.167Z,96429.50
2022-10-19T22:45:55.703Z,96434.03
2022-10-19T22:48:22.298Z,96432.44
2022-10-19T22:50:53.097Z,96419.06
2022-10-19T22:53:21.025Z,96443.78
2022-10-19T22:55:47.851Z,96439.38
2022-10-19T22:58:14.422Z,96440.94
2022-10-19T23:00:40.992Z,96450.81
2022-10-19T23:03:07.557Z,96452.94
2022-10-19T23:05:34.054Z,96443.31
2022-10-19T23:08:00.592Z,96463.00
2022-10-19T23:10:27.171Z,96444.63
2022-10-19T23:12:54.753Z,96464.50
2022-10-19T23:15:21.803Z,96460.50
2022-10-19T23:17:48.387Z,96431.66
2022-10-19T23:20:15.089Z,96450.44
2022-10-19T23:22:41.902Z,96460.69
2022-10-19T23:25:08.898Z,96432.44
2022-10-19T23:27:35.805Z,96449.25
2022-10-19T23:30:03.919Z,96444.28
2022-10-19T23:32:30.535Z,96448.97
2022-10-19T23:34:57.149Z,96452.75
2022-10-19T23:37:23.716Z,96454.16
2022-10-19T23:39:50.237Z,96454.25
2022-10-19T23:42:16.788Z,96447.75
2022-10-19T23:44:43.349Z,96462.66
2022-10-19T23:47:09.884Z,96439.84
2022-10-19T23:49:36.533Z,96451.09
2022-10-19T23:52:03.157Z,96454.44
2022-10-19T23:54:29.990Z,96423.13
2022-10-19T23:56:56.605Z,96447.06
2022-10-19T23:59:23.231Z,96443.28
